createdAt,value
2022-11-29T00:01:08.036Z,31.52
2022-11-29T00:03:34.665Z,30.50
2022-11-29T00:06:06.207Z,31.00
2022-11-29T00:08:32.361Z,30.42
2022-11-29T00:11:04.151Z,31.58
2022-11-29T00:13:30.255Z,30.77
2022-11-29T00:15:56.378Z,29.98
2022-11-29T00:18:22.548Z,31.08
2022-11-29T00:20:48.656Z,30.20
2022-11-29T00:23:14.757Z,31.92
2022-11-29T06:48:07.613Z,30.48
2022-11-29T06:50:53.332Z,30.92
2022-11-29T06:53:45.349Z,29.67
2022-11-29T06:56:49.497Z,30.88
2022-11-29T06:59:37.940Z,32.08
2022-11-29T07:02:13.023Z,30.73
2022-11-29T07:05:11.436Z,32.53
2022-11-29T07:07:38.037Z,29.90
2022-11-29T07:10:05.621Z,31.05
2022-11-29T07:12:33.912Z,31.30
2022-11-29T07:15:00.280Z,30.75
2022-11-29T07:17:41.683Z,31.85
2022-11-29T07:20:26.555Z,31.33
2022-11-29T07:23:20.424Z,30.33
2022-11-29T07:26:11.240Z,31.38
2022-11-29T07:28:54.309Z,30.30
2022-11-29T07:31:54.334Z,29.77
2022-11-29T07:34:36.339Z,29.17
2022-11-29T07:37:28.878Z,30.20
2022-11-29T07:40:06.677Z,29.42
2022-11-29T07:43:07.013Z,28.27
2022-11-29T07:45:36.793Z,29.95
2022-11-29T07:48:04.091Z,29.13
2022-11-29T07:50:31.136Z,28.15
2022-11-29T07:52:57.769Z,29.65
2022-11-29T07:55:26.952Z,30.05
2022-11-29T07:57:53.373Z,29.02
2022-11-29T08:00:20.678Z,28.92
2022-11-29T08:02:48.045Z,28.80
2022-11-29T08:05:14.237Z,27.98
2022-11-29T08:07:41.417Z,28.55
2022-11-29T08:10:12.405Z,27.27
2022-11-29T08:12:43.930Z,26.85
2022-11-29T08:15:10.426Z,26.98
2022-11-29T08:17:39.667Z,29.20
2022-11-29T08:20:06.501Z,29.42
2022-11-29T08:22:32.785Z,27.30
2022-11-29T08:24:59.983Z,28.92
2022-11-29T08:27:26.402Z,28.88
2022-11-29T08:29:52.582Z,26.92
2022-11-29T08:32:18.703Z,28.17
2022-11-29T08:34:45.144Z,29.25
2022-11-29T08:37:11.503Z,28.90
2022-11-29T08:39:37.628Z,29.40
2022-11-29T08:42:04.015Z,27.88
2022-11-29T08:44:30.217Z,30.40
2022-11-29T08:47:15.160Z,29.63
2022-11-29T08:50:01.253Z,28.77
2022-11-29T08:52:47.205Z,28.90
2022-11-29T08:57:40.862Z,27.65
2022-11-29T09:00:08.243Z,29.02
2022-11-29T09:02:34.547Z,28.70
2022-11-29T09:05:00.745Z,27.42
2022-11-29T09:07:26.900Z,28.77
2022-11-29T09:09:53.016Z,30.48
2022-11-29T09:12:19.142Z,29.70
2022-11-29T09:14:45.594Z,29.33
2022-11-29T09:17:12.075Z,28.15
2022-11-29T09:19:38.555Z,29.35
2022-11-29T09:22:04.671Z,27.48
2022-11-29T09:24:30.945Z,29.00
2022-11-29T09:26:57.117Z,28.75
2022-11-29T09:29:23.225Z,28.85
2022-11-29T09:31:49.372Z,30.05
2022-11-29T09:34:16.746Z,28.65
2022-11-29T09:36:45.724Z,29.40
2022-11-29T09:39:14.667Z,28.38
2022-11-29T09:42:22.306Z,28.30
2022-11-29T09:45:06.797Z,28.65
2022-11-29T09:48:24.015Z,28.65
2022-11-29T09:51:24.732Z,30.20
2022-11-29T09:54:18.999Z,29.55
2022-11-29T09:56:49.687Z,28.23
2022-11-29T09:59:28.938Z,29.30
2022-11-29T10:02:21.094Z,29.90
2022-11-29T10:04:56.720Z,28.38
2022-11-29T10:07:32.038Z,30.10
2022-11-29T10:10:09.047Z,30.52
2022-11-29T10:12:42.594Z,32.80
2022-11-29T10:15:18.398Z,30.25
2022-11-29T10:17:54.569Z,31.10
2022-11-29T10:20:24.419Z,29.63
2022-11-29T10:23:21.169Z,31.63
2022-11-29T10:25:49.917Z,30.08
2022-11-29T10:28:20.303Z,31.45
2022-11-29T10:30:47.046Z,32.33
2022-11-29T10:33:21.557Z,28.95
2022-11-29T10:35:50.862Z,30.83
2022-11-29T10:38:32.504Z,29.63
2022-11-29T10:41:12.268Z,29.63
2022-11-29T10:43:38.644Z,29.70
2022-11-29T10:46:10.468Z,32.03
2022-11-29T10:48:36.605Z,28.85
2022-11-29T10:51:03.659Z,32.45
2022-11-29T10:53:37.127Z,33.40
2022-11-29T10:56:19.873Z,31.45
2022-11-29T10:58:56.248Z,33.17
2022-11-29T11:01:22.833Z,29.27
2022-11-29T11:03:57.225Z,29.63
2022-11-29T11:06:27.461Z,32.65
2022-11-29T11:09:11.164Z,32.63
2022-11-29T11:11:38.367Z,30.55
2022-11-29T11:14:18.070Z,33.38
2022-11-29T11:16:44.327Z,31.55
2022-11-29T11:19:32.053Z,32.38
2022-11-29T11:22:00.747Z,30.73
2022-11-29T11:24:32.686Z,32.63
2022-11-29T11:27:00.232Z,28.77
2022-11-29T11:29:36.661Z,29.50
2022-11-29T11:32:04.443Z,27.75
2022-11-29T11:34:34.911Z,37.92
2022-11-29T11:37:31.472Z,29.30
2022-11-29T11:40:00.266Z,29.00
2022-11-29T11:42:37.085Z,29.33
2022-11-29T11:45:09.565Z,30.10
2022-11-29T11:47:42.477Z,34.92
2022-11-29T11:50:14.936Z,29.67
2022-11-29T11:52:50.360Z,30.30
2022-11-29T11:55:30.632Z,31.13
2022-11-29T11:58:09.358Z,28.88
2022-11-29T12:01:05.492Z,33.45
2022-11-29T12:03:38.411Z,30.15
2022-11-29T12:06:34.318Z,36.20
2022-11-29T12:09:16.549Z,29.58
2022-11-29T12:12:13.517Z,29.77
2022-11-29T12:14:58.301Z,30.48
2022-11-29T12:17:52.455Z,29.98
2022-11-29T12:20:32.860Z,29.50
2022-11-29T12:23:17.104Z,35.80
2022-11-29T12:26:05.566Z,32.17
2022-11-29T12:28:33.950Z,33.38
2022-11-29T12:31:02.845Z,33.05
2022-11-29T12:33:43.871Z,30.52
2022-11-29T12:36:10.021Z,45.35
2022-11-29T12:39:05.479Z,29.17
2022-11-29T12:41:47.255Z,31.67
2022-11-29T12:44:22.780Z,33.05
2022-11-29T12:47:34.158Z,31.92
2022-11-29T12:50:10.323Z,30.70
2022-11-29T12:52:47.389Z,31.75
2022-11-29T12:55:23.249Z,33.17
2022-11-29T12:58:04.496Z,31.15
2022-11-29T13:00:56.089Z,33.22
2022-11-29T13:03:28.858Z,32.25
2022-11-29T13:06:31.598Z,32.55
2022-11-29T13:09:26.148Z,32.95
2022-11-29T13:12:18.703Z,32.40
2022-11-29T13:15:01.612Z,35.25
2022-11-29T13:17:38.898Z,38.58
2022-11-29T13:20:25.193Z,33.10
2022-11-29T13:23:45.538Z,35.45
2022-11-29T13:26:17.512Z,33.20
2022-11-29T13:28:46.392Z,35.70
2022-11-29T13:31:17.343Z,34.45
2022-11-29T13:33:46.439Z,34.97
2022-11-29T13:36:28.503Z,34.67
2022-11-29T13:39:22.419Z,38.50
2022-11-29T13:42:15.756Z,35.33
2022-11-29T13:45:04.604Z,33.53
2022-11-29T13:47:30.735Z,34.70
2022-11-29T13:49:57.293Z,33.28
2022-11-29T13:52:26.655Z,33.08
2022-11-29T13:55:15.761Z,34.38
2022-11-29T13:58:20.692Z,33.97
2022-11-29T14:00:49.708Z,31.17
2022-11-29T14:03:18.666Z,32.33
2022-11-29T14:05:46.942Z,33.45
2022-11-29T14:09:02.442Z,32.80
2022-11-29T14:11:29.791Z,36.58
2022-11-29T14:14:10.024Z,33.47
2022-11-29T14:16:41.928Z,33.00
2022-11-29T14:19:08.034Z,35.17
2022-11-29T14:22:12.939Z,32.53
2022-11-29T14:24:40.285Z,33.50
2022-11-29T14:27:06.370Z,32.08
2022-11-29T14:29:47.747Z,33.88
2022-11-29T14:33:03.663Z,34.60
2022-11-29T14:35:39.544Z,34.15
2022-11-29T14:38:25.083Z,33.13
2022-11-29T14:41:03.676Z,33.78
2022-11-29T14:43:34.208Z,31.98
2022-11-29T14:46:15.691Z,34.15
2022-11-29T14:48:47.027Z,33.08
2022-11-29T14:51:16.261Z,34.13
2022-11-29T14:53:44.785Z,34.40
2022-11-29T14:56:29.066Z,33.55
2022-11-29T14:59:32.776Z,32.05
2022-11-29T15:02:07.503Z,32.70
2022-11-29T15:04:35.850Z,35.03
2022-11-29T15:07:03.565Z,34.08
2022-11-29T15:09:33.413Z,33.63
2022-11-29T15:12:06.996Z,32.75
2022-11-29T15:14:48.939Z,32.75
2022-11-29T15:17:32.079Z,33.05
2022-11-29T15:20:11.753Z,33.75
2022-11-29T15:22:48.079Z,36.67
2022-11-29T15:25:31.065Z,34.50
2022-11-29T15:28:03.076Z,36.97
2022-11-29T15:30:34.852Z,32.92
2022-11-29T15:33:04.542Z,34.53
2022-11-29T15:35:33.756Z,35.53
2022-11-29T15:38:00.290Z,35.45
2022-11-29T15:40:39.583Z,36.00
2022-11-29T15:43:14.671Z,34.67
2022-11-29T15:45:47.672Z,33.45
2022-11-29T15:48:17.876Z,33.40
2022-11-29T15:50:51.899Z,33.60
2022-11-29T15:53:44.157Z,32.10
2022-11-29T15:56:35.837Z,33.13
2022-11-29T15:59:09.048Z,33.45
2022-11-29T16:01:37.192Z,33.30
2022-11-29T16:04:03.645Z,32.03
2022-11-29T16:06:40.751Z,34.55
2022-11-29T16:09:12.576Z,32.83
2022-11-29T16:11:39.410Z,33.40
2022-11-29T16:14:11.706Z,32.70
2022-11-29T16:16:39.993Z,35.05
2022-11-29T16:19:26.293Z,34.40
2022-11-29T16:22:07.521Z,34.13
2022-11-29T16:24:34.597Z,33.80
2022-11-29T16:27:01.699Z,34.53
2022-11-29T16:29:31.102Z,32.30
2022-11-29T16:31:57.746Z,35.00
2022-11-29T16:34:31.241Z,34.35
2022-11-29T16:37:07.089Z,34.38
2022-11-29T16:39:38.746Z,35.85
2022-11-29T16:42:19.390Z,35.47
2022-11-29T16:45:02.224Z,35.67
2022-11-29T16:47:57.959Z,33.95
2022-11-29T16:50:26.504Z,35.55
2022-11-29T16:52:56.518Z,35.05
2022-11-29T16:55:23.106Z,35.40
2022-11-29T16:57:49.564Z,35.47
2022-11-29T17:00:31.662Z,35.80
2022-11-29T17:02:58.409Z,35.38
2022-11-29T17:05:24.667Z,34.50
2022-11-29T17:07:51.246Z,33.15
2022-11-29T17:10:22.073Z,33.65
2022-11-29T17:12:48.644Z,36.53
2022-11-29T17:15:14.911Z,34.08
2022-11-29T17:17:43.350Z,35.35
2022-11-29T17:20:11.737Z,35.35
2022-11-29T17:22:37.887Z,34.65
2022-11-29T17:25:04.551Z,34.47
2022-11-29T17:27:30.712Z,36.03
2022-11-29T17:29:56.885Z,35.17
2022-11-29T17:32:26.641Z,36.63
2022-11-29T17:34:53.322Z,34.63
2022-11-29T17:37:19.517Z,34.28
2022-11-29T17:39:48.162Z,34.97
2022-11-29T17:42:14.662Z,33.97
2022-11-29T17:44:41.130Z,36.75
2022-11-29T17:47:07.258Z,37.28
2022-11-29T17:49:33.409Z,36.20
2022-11-29T17:51:59.536Z,35.75
2022-11-29T17:54:25.708Z,34.13
2022-11-29T17:56:52.054Z,36.45
2022-11-29T17:59:18.190Z,37.75
2022-11-29T18:01:47.210Z,36.70
2022-11-29T18:04:13.592Z,36.50
2022-11-29T18:06:40.679Z,34.92
2022-11-29T18:09:09.113Z,38.53
2022-11-29T18:11:45.313Z,36.85
2022-11-29T18:14:16.142Z,35.60
2022-11-29T18:16:42.570Z,36.28
2022-11-29T18:19:12.723Z,36.53
2022-11-29T18:21:39.236Z,35.72
2022-11-29T18:24:07.084Z,36.95
2022-11-29T18:26:34.137Z,36.75
2022-11-29T18:29:00.977Z,36.85
2022-11-29T18:31:32.820Z,38.65
2022-11-29T18:34:01.068Z,38.20
2022-11-29T18:36:32.555Z,37.78
2022-11-29T18:39:01.099Z,38.75
2022-11-29T18:41:29.231Z,38.13
2022-11-29T18:44:00.551Z,37.60
2022-11-29T18:46:32.263Z,37.90
2022-11-29T18:49:01.124Z,39.42
2022-11-29T18:51:28.939Z,36.72
2022-11-29T18:53:55.378Z,39.45
2022-11-29T18:56:23.250Z,38.60
2022-11-29T18:58:58.381Z,40.10
2022-11-29T19:03:54.362Z,37.60
2022-11-29T19:06:23.465Z,37.60
2022-11-29T19:08:49.931Z,39.92
2022-11-29T19:11:21.592Z,39.50
2022-11-29T19:13:51.782Z,40.88
2022-11-29T19:16:19.312Z,38.78
2022-11-29T19:18:45.836Z,38.10
2022-11-29T19:21:14.801Z,40.03
2022-11-29T19:23:42.274Z,41.25
2022-11-29T19:26:13.880Z,40.65
2022-11-29T19:28:42.424Z,41.42
2022-11-29T19:31:10.643Z,41.55
2022-11-29T19:33:38.937Z,39.13
2022-11-29T19:36:12.927Z,39.47
2022-11-29T19:38:40.390Z,40.35
2022-11-29T19:41:17.364Z,40.90
2022-11-29T19:43:43.972Z,43.00
2022-11-29T19:46:15.539Z,41.75
2022-11-29T19:48:41.899Z,40.90
2022-11-29T19:51:09.446Z,41.97
2022-11-29T19:53:35.719Z,41.55
2022-11-29T19:56:10.718Z,40.95
2022-11-29T19:58:36.853Z,41.90
2022-11-29T20:01:10.269Z,39.92
2022-11-29T20:03:36.482Z,43.15
2022-11-29T20:06:03.032Z,42.22
2022-11-29T20:08:29.793Z,42.78
2022-11-29T20:10:56.112Z,43.83
2022-11-29T20:13:22.549Z,43.72
2022-11-29T20:15:48.767Z,42.25
2022-11-29T20:18:14.981Z,42.17
2022-11-29T20:20:41.109Z,42.78
2022-11-29T20:23:07.219Z,43.83
2022-11-29T20:25:33.827Z,43.72
2022-11-29T20:27:59.942Z,42.58
2022-11-29T20:30:26.161Z,45.22
2022-11-29T20:32:52.379Z,42.88
2022-11-29T20:35:19.011Z,44.50
2022-11-29T20:38:03.538Z,42.17
2022-11-29T20:40:46.378Z,43.45
2022-11-29T20:43:39.498Z,43.40
2022-11-29T20:46:05.962Z,42.30
2022-11-29T20:48:32.284Z,44.28
2022-11-29T20:51:00.978Z,43.55
2022-11-29T20:53:35.387Z,45.53
2022-11-29T20:56:02.081Z,44.75
2022-11-29T20:58:28.232Z,43.80
2022-11-29T21:00:55.329Z,43.70
2022-11-29T21:03:22.348Z,43.53
2022-11-29T21:05:48.950Z,41.47
2022-11-29T21:08:16.968Z,43.55
2022-11-29T21:10:43.165Z,43.25
2022-11-29T21:13:11.529Z,43.45
2022-11-29T21:15:39.144Z,43.60
2022-11-29T21:18:05.604Z,44.72
2022-11-29T21:20:31.937Z,43.33
2022-11-29T21:23:35.713Z,41.83
2022-11-29T21:26:13.414Z,42.55
2022-11-29T21:28:51.169Z,44.28
2022-11-29T21:31:18.039Z,44.42
2022-11-29T21:33:44.609Z,42.92
2022-11-29T21:36:11.940Z,42.47
2022-11-29T21:38:38.755Z,44.42
2022-11-29T21:41:04.952Z,42.72
2022-11-29T21:44:04.234Z,42.08
2022-11-29T21:46:17.262Z,43.33
2022-11-29T21:48:44.471Z,43.08
2022-11-29T21:51:11.964Z,41.63
2022-11-29T21:53:39.371Z,41.63
2022-11-29T21:56:08.138Z,43.22
2022-11-29T21:58:35.940Z,42.42
2022-11-29T22:01:14.839Z,43.83
2022-11-29T22:03:42.221Z,43.17
2022-11-29T22:06:18.699Z,41.92
2022-11-29T22:08:44.867Z,44.05
2022-11-29T22:11:16.199Z,42.15
2022-11-29T22:14:02.529Z,43.70
2022-11-29T22:16:30.158Z,40.63
2022-11-29T22:18:56.395Z,43.20
2022-11-29T22:21:23.071Z,42.83
2022-11-29T22:23:49.291Z,41.92
2022-11-29T22:26:15.410Z,43.50
2022-11-29T22:28:41.542Z,42.60
2022-11-29T22:31:12.204Z,43.15
2022-11-29T22:33:38.928Z,44.70
2022-11-29T22:36:10.256Z,44.08
2022-11-29T22:38:37.283Z,40.83
2022-11-29T22:41:10.014Z,41.00
2022-11-29T22:43:36.707Z,43.53
2022-11-29T22:46:05.224Z,41.28
2022-11-29T22:48:37.005Z,42.80
2022-11-29T22:51:28.091Z,43.72
2022-11-29T22:53:56.576Z,42.60
2022-11-29T22:56:24.944Z,42.05
2022-11-29T22:58:51.276Z,42.55
2022-11-29T23:01:20.226Z,42.33
2022-11-29T23:03:51.816Z,42.88
2022-11-29T23:06:20.648Z,44.22
2022-11-29T23:08:48.588Z,42.78
2022-11-29T23:11:29.602Z,41.67
2022-11-29T23:13:55.727Z,41.88
2022-11-29T23:16:26.831Z,41.90
2022-11-29T23:18:54.460Z,41.88
2022-11-29T23:21:22.155Z,41.60
2022-11-29T23:23:54.466Z,42.10
2022-11-29T23:26:26.034Z,42.47
2022-11-29T23:28:53.041Z,44.13
2022-11-29T23:31:20.303Z,41.75
2022-11-29T23:33:46.445Z,42.00
2022-11-29T23:36:13.780Z,43.15
2022-11-29T23:38:40.064Z,41.17
2022-11-29T23:41:08.217Z,44.33
2022-11-29T23:43:36.385Z,43.45
2022-11-29T23:46:12.659Z,44.00
2022-11-29T23:48:38.991Z,42.35
2022-11-29T23:51:05.133Z,43.78
2022-11-29T23:53:31.232Z,43.03
2022-11-29T23:56:02.213Z,45.53
2022-11-29T23:58:30.057Z,42.03
